Time;durP1;ratioP1;P1;durP2;ratioP2;P2;SDS_P1;SDS_P2;PMS_P1;PMS_P2;Temp;Humidity;BMP_temperature;BMP_pressure;BME280_temperature;BME280_humidity;BME280_pressure;Samples;Min_cycle;Max_cycle;Signal;HPM_P1;HPM_P2
2023/06/30 00:01:48;;;;;;;4.32;2.35;;;21.10;68.20;;;;;;5136118;27;20026;-71
2023/06/30 00:04:16;;;;;;;5.28;2.90;;;21.10;68.70;;;;;;5118150;27;20033;-71
2023/06/30 00:06:42;;;;;;;5.38;2.65;;;21.00;69.00;;;;;;5135965;27;20125;-71
2023/06/30 00:09:08;;;;;;;6.68;2.72;;;21.00;69.30;;;;;;5136762;27;20034;-71
2023/06/30 00:11:34;;;;;;;8.18;2.63;;;21.00;69.40;;;;;;5135884;27;20019;-71
2023/06/30 00:13:59;;;;;;;5.43;2.65;;;21.00;69.40;;;;;;5136421;27;20050;-71
2023/06/30 00:16:25;;;;;;;3.67;2.72;;;21.00;69.40;;;;;;5135832;27;20051;-71
2023/06/30 00:18:50;;;;;;;7.32;2.80;;;20.90;70.00;;;;;;5136131;27;20083;-70
2023/06/30 00:21:16;;;;;;;4.00;2.75;;;20.90;70.10;;;;;;5135750;27;20030;-71
2023/06/30 00:23:42;;;;;;;3.38;2.22;;;20.90;70.30;;;;;;5135556;27;20146;-70
2023/06/30 00:26:07;;;;;;;4.72;2.40;;;20.90;70.40;;;;;;5135933;27;20564;-70
2023/06/30 00:28:33;;;;;;;3.63;2.67;;;20.80;70.70;;;;;;5135592;27;20033;-70
2023/06/30 00:30:58;;;;;;;4.45;2.70;;;20.80;70.60;;;;;;5136413;27;20027;-71
2023/06/30 00:33:24;;;;;;;5.13;3.10;;;20.80;70.50;;;;;;5135874;27;20098;-70
2023/06/30 00:35:50;;;;;;;7.78;3.10;;;20.80;70.80;;;;;;5135777;27;20106;-70
2023/06/30 00:38:15;;;;;;;6.13;2.95;;;20.80;71.00;;;;;;5135714;27;20027;-71
2023/06/30 00:40:41;;;;;;;4.90;3.17;;;20.80;71.20;;;;;;5135212;27;20023;-71
2023/06/30 00:43:06;;;;;;;3.88;3.00;;;20.70;71.40;;;;;;5135316;27;20102;-71
2023/06/30 00:45:33;;;;;;;8.52;3.05;;;20.70;71.60;;;;;;5125625;27;20418;-72
2023/06/30 00:47:58;;;;;;;6.55;3.05;;;20.70;71.80;;;;;;5115117;28;20020;-71
2023/06/30 00:50:25;;;;;;;5.15;3.05;;;20.70;72.00;;;;;;5114696;28;20027;-71
2023/06/30 00:52:50;;;;;;;6.63;3.42;;;20.70;71.80;;;;;;5114460;28;20034;-72
2023/06/30 00:55:16;;;;;;;6.47;3.80;;;20.60;71.70;;;;;;5114849;28;20036;-71
2023/06/30 00:57:42;;;;;;;6.95;3.30;;;20.60;72.00;;;;;;5113349;28;20024;-71
2023/06/30 01:00:11;;;;;;;5.30;3.13;;;20.60;72.60;;;;;;5114701;28;20030;-71
2023/06/30 01:02:55;;;;;;;4.60;3.63;;;20.60;72.40;;;;;;5114308;28;20376;-71
2023/06/30 01:05:27;;;;;;;8.30;3.95;;;20.60;72.30;;;;;;5114256;28;20404;-71
2023/06/30 01:08:15;;;;;;;5.25;3.70;;;20.60;72.30;;;;;;5114270;28;20488;-71
2023/06/30 01:10:42;;;;;;;8.65;3.50;;;20.60;72.50;;;;;;5131813;27;20027;-71
2023/06/30 01:13:09;;;;;;;7.80;3.45;;;20.60;72.60;;;;;;5134938;27;20023;-71
2023/06/30 01:15:37;;;;;;;8.70;3.45;;;20.60;72.60;;;;;;5134295;27;20054;-69
2023/06/30 01:18:03;;;;;;;5.88;3.25;;;20.60;72.90;;;;;;5134580;27;20061;-71
2023/06/30 01:20:32;;;;;;;9.90;3.58;;;20.60;73.10;;;;;;5134486;27;20027;-72
2023/06/30 01:23:19;;;;;;;9.57;3.53;;;20.60;74.10;;;;;;5116298;27;20440;-70
2023/06/30 01:25:47;;;;;;;8.07;3.72;;;20.50;74.60;;;;;;5134182;27;20027;-70
2023/06/30 01:28:14;;;;;;;7.22;3.15;;;20.50;75.20;;;;;;5134423;27;20390;-70
2023/06/30 01:30:39;;;;;;;4.50;3.38;;;20.40;75.50;;;;;;5134222;27;20027;-70
2023/06/30 01:33:05;;;;;;;5.07;3.10;;;20.40;75.30;;;;;;5134427;27;20034;-70
2023/06/30 01:35:31;;;;;;;9.45;3.75;;;20.30;76.30;;;;;;5134077;27;20035;-70
2023/06/30 01:37:57;;;;;;;5.25;3.42;;;20.30;76.10;;;;;;5134524;27;20025;-70
2023/06/30 01:40:23;;;;;;;9.07;3.40;;;20.20;76.70;;;;;;5134477;27;20027;-70
2023/06/30 01:42:54;;;;;;;6.85;3.47;;;20.10;76.70;;;;;;5134252;27;20059;-70
2023/06/30 01:45:20;;;;;;;5.35;3.20;;;20.10;76.50;;;;;;5133367;27;20049;-71
2023/06/30 01:47:46;;;;;;;6.00;3.33;;;20.10;76.90;;;;;;5131650;27;20043;-70
2023/06/30 01:50:13;;;;;;;9.32;3.85;;;20.10;77.60;;;;;;5133913;27;20091;-70
2023/06/30 01:52:39;;;;;;;10.30;3.50;;;20.00;77.80;;;;;;5133605;27;20071;-70
2023/06/30 01:55:05;;;;;;;7.35;2.97;;;20.00;78.30;;;;;;5134189;27;20027;-70
2023/06/30 01:57:30;;;;;;;7.70;3.25;;;19.90;78.30;;;;;;5134309;27;20023;-70
2023/06/30 01:59:56;;;;;;;5.50;3.00;;;19.90;78.30;;;;;;5134097;27;20027;-70
2023/06/30 02:02:22;;;;;;;5.15;3.20;;;19.90;78.80;;;;;;5133854;27;20485;-69
2023/06/30 02:04:47;;;;;;;6.60;3.22;;;19.90;78.50;;;;;;5133672;27;20019;-69
2023/06/30 02:07:13;;;;;;;6.88;3.33;;;19.90;78.40;;;;;;5133909;27;20038;-70
2023/06/30 02:09:38;;;;;;;5.60;2.58;;;19.90;78.70;;;;;;5133392;27;20053;-72
2023/06/30 02:12:04;;;;;;;6.10;2.92;;;19.80;79.00;;;;;;5115384;27;20062;-71
2023/06/30 02:14:30;;;;;;;7.00;3.08;;;19.80;79.00;;;;;;5133590;27;20031;-71
2023/06/30 02:16:56;;;;;;;8.40;3.00;;;19.80;80.00;;;;;;5133529;27;20037;-71
2023/06/30 02:19:23;;;;;;;6.50;2.92;;;19.70;79.60;;;;;;5134305;27;20353;-71
2023/06/30 02:21:50;;;;;;;7.85;3.10;;;19.70;80.50;;;;;;5133363;27;20464;-71
2023/06/30 02:24:16;;;;;;;6.97;3.00;;;19.60;80.90;;;;;;5133765;27;20032;-70
2023/06/30 02:26:42;;;;;;;5.10;3.42;;;19.60;81.10;;;;;;5132994;27;20076;-71
2023/06/30 02:29:07;;;;;;;5.00;2.90;;;19.60;81.30;;;;;;5133797;27;20023;-71
2023/06/30 02:31:33;;;;;;;6.30;3.30;;;19.50;81.30;;;;;;5133691;27;20455;-74
2023/06/30 02:33:59;;;;;;;4.60;2.58;;;19.50;81.40;;;;;;5115259;28;20027;-70
2023/06/30 02:36:25;;;;;;;5.82;3.00;;;19.50;81.50;;;;;;5133723;28;20451;-71
2023/06/30 02:38:50;;;;;;;5.82;3.30;;;19.50;81.50;;;;;;5133155;28;20019;-71
2023/06/30 02:41:16;;;;;;;5.90;3.20;;;19.50;81.80;;;;;;5133604;28;20476;-71
2023/06/30 02:43:43;;;;;;;6.32;3.30;;;19.50;82.20;;;;;;5133500;28;20023;-71
2023/06/30 02:46:09;;;;;;;8.93;3.13;;;19.40;82.90;;;;;;5131513;28;20043;-70
2023/06/30 02:48:35;;;;;;;5.95;3.38;;;19.40;83.50;;;;;;5114549;28;20038;-74
2023/06/30 02:51:00;;;;;;;9.35;3.40;;;19.40;84.10;;;;;;5112709;28;20050;-70
2023/06/30 02:53:26;;;;;;;4.90;2.88;;;19.40;84.60;;;;;;5113036;28;20473;-70
2023/06/30 02:55:51;;;;;;;6.88;3.83;;;19.40;84.40;;;;;;5112530;28;20358;-71
2023/06/30 02:58:17;;;;;;;7.47;3.40;;;19.40;85.20;;;;;;5112618;28;20020;-71
2023/06/30 03:00:43;;;;;;;7.82;3.22;;;19.40;85.50;;;;;;5112528;28;20529;-69
2023/06/30 03:03:08;;;;;;;8.00;3.63;;;19.40;85.50;;;;;;5112865;28;20031;-71
2023/06/30 03:05:34;;;;;;;8.18;3.80;;;19.40;85.40;;;;;;5119422;28;20038;-71
2023/06/30 03:08:00;;;;;;;6.80;3.45;;;19.40;85.10;;;;;;5132908;28;20031;-70
2023/06/30 03:10:26;;;;;;;4.95;3.15;;;19.40;85.40;;;;;;5133290;28;20058;-71
2023/06/30 03:12:51;;;;;;;8.55;3.42;;;19.30;86.00;;;;;;5133009;28;20091;-71
2023/06/30 03:15:17;;;;;;;8.90;3.40;;;19.30;85.60;;;;;;5133538;28;20444;-71
2023/06/30 03:17:43;;;;;;;5.95;3.58;;;19.30;85.80;;;;;;5132858;28;20035;-71
2023/06/30 03:20:12;;;;;;;9.75;4.00;;;19.30;85.90;;;;;;5133264;27;20034;-70
2023/06/30 03:22:41;;;;;;;5.85;3.25;;;19.20;86.30;;;;;;5136087;27;20073;-73
2023/06/30 03:25:08;;;;;;;6.75;3.60;;;19.20;86.50;;;;;;5118937;27;20034;-70
2023/06/30 03:27:34;;;;;;;4.93;3.30;;;19.20;86.70;;;;;;5136732;27;20391;-71
2023/06/30 03:30:04;;;;;;;8.35;3.58;;;19.20;86.90;;;;;;5136297;27;20038;-71
2023/06/30 03:32:32;;;;;;;4.10;3.35;;;19.20;86.60;;;;;;5136936;27;20027;-71
2023/06/30 03:35:02;;;;;;;7.10;3.80;;;19.30;86.80;;;;;;5136336;27;20545;-69
2023/06/30 03:37:28;;;;;;;8.50;3.65;;;19.30;86.70;;;;;;5136880;27;20110;-69
2023/06/30 03:39:54;;;;;;;5.10;3.33;;;19.30;86.90;;;;;;5136559;27;20015;-70
2023/06/30 03:42:19;;;;;;;10.68;3.90;;;19.30;87.00;;;;;;5136569;27;20371;-70
2023/06/30 03:44:45;;;;;;;5.88;3.53;;;19.30;87.30;;;;;;5136682;27;20031;-70
2023/06/30 03:47:11;;;;;;;7.00;3.50;;;19.40;87.30;;;;;;5136290;27;20488;-70
2023/06/30 03:49:36;;;;;;;5.18;3.65;;;19.40;87.40;;;;;;5136407;27;20069;-70
2023/06/30 03:52:02;;;;;;;7.00;3.63;;;19.40;87.10;;;;;;5136264;27;20397;-70
2023/06/30 03:54:28;;;;;;;8.27;3.75;;;19.50;87.40;;;;;;5135672;27;20072;-70
2023/06/30 03:56:54;;;;;;;10.05;4.53;;;19.40;87.20;;;;;;5133805;27;20023;-70
2023/06/30 03:59:19;;;;;;;7.90;3.75;;;19.50;86.90;;;;;;5136467;27;20349;-70
2023/06/30 04:01:45;;;;;;;8.52;4.10;;;19.60;86.80;;;;;;5136119;27;20023;-70
2023/06/30 04:04:11;;;;;;;5.93;3.80;;;19.70;86.50;;;;;;5136359;27;20023;-70
2023/06/30 04:06:36;;;;;;;6.93;3.70;;;19.70;86.10;;;;;;5136207;27;20028;-70
2023/06/30 04:09:03;;;;;;;6.53;3.10;;;19.80;84.90;;;;;;5135884;27;20130;-70
2023/06/30 04:11:28;;;;;;;7.05;3.53;;;19.90;84.60;;;;;;5135892;27;20464;-70
2023/06/30 04:13:54;;;;;;;7.38;3.28;;;19.90;84.40;;;;;;5135773;27;20027;-70
2023/06/30 04:16:20;;;;;;;6.97;3.42;;;20.00;84.10;;;;;;5136264;27;20031;-70
2023/06/30 04:18:45;;;;;;;8.90;3.58;;;20.10;83.80;;;;;;5135795;27;20019;-70
2023/06/30 04:21:11;;;;;;;5.30;3.40;;;20.10;83.50;;;;;;5135840;27;20066;-70
2023/06/30 04:23:37;;;;;;;7.97;3.60;;;20.20;84.00;;;;;;5117669;27;20470;-71
2023/06/30 04:26:04;;;;;;;6.28;3.58;;;20.30;83.20;;;;;;5135603;27;20395;-71
2023/06/30 04:28:30;;;;;;;5.40;3.63;;;20.40;82.80;;;;;;5135939;27;20035;-71
2023/06/30 04:30:55;;;;;;;5.15;3.30;;;20.40;82.60;;;;;;5135315;27;20027;-71
2023/06/30 04:33:21;;;;;;;8.30;3.83;;;20.50;81.60;;;;;;5135829;27;20117;-71
2023/06/30 04:35:47;;;;;;;6.38;3.95;;;20.60;81.20;;;;;;5135142;27;20384;-72
2023/06/30 04:38:12;;;;;;;8.00;3.63;;;20.80;80.50;;;;;;5135449;27;20091;-72
2023/06/30 04:40:38;;;;;;;8.45;4.03;;;20.90;80.10;;;;;;5135996;27;20034;-71
2023/06/30 04:43:11;;;;;;;6.95;3.25;;;21.00;79.00;;;;;;5135048;27;20034;-70
2023/06/30 04:45:36;;;;;;;7.22;3.40;;;21.10;78.70;;;;;;5135559;27;20031;-72
2023/06/30 04:48:02;;;;;;;13.90;4.18;;;21.30;78.40;;;;;;5135010;27;20041;-72
2023/06/30 04:50:28;;;;;;;9.55;3.53;;;21.40;77.80;;;;;;5135715;27;20038;-70
2023/06/30 04:52:54;;;;;;;7.65;3.83;;;21.60;77.70;;;;;;5135098;27;20349;-71
2023/06/30 04:55:19;;;;;;;8.65;3.42;;;21.90;76.80;;;;;;5124833;27;20027;-71
2023/06/30 04:57:45;;;;;;;11.13;3.05;;;22.10;75.50;;;;;;5131205;27;20107;-71
2023/06/30 05:00:11;;;;;;;6.82;3.50;;;22.30;75.10;;;;;;5135159;27;20027;-71
2023/06/30 05:02:37;;;;;;;9.80;3.58;;;22.60;73.90;;;;;;5135635;27;20524;-71
2023/06/30 05:05:03;;;;;;;6.80;3.28;;;23.00;71.90;;;;;;5135104;27;20027;-71
2023/06/30 05:07:28;;;;;;;8.85;3.08;;;23.50;70.80;;;;;;5135211;27;20371;-71
2023/06/30 05:09:54;;;;;;;4.47;3.40;;;24.00;69.00;;;;;;5135062;27;20027;-71
2023/06/30 05:12:19;;;;;;;7.32;4.13;;;24.40;67.00;;;;;;5135081;27;20027;-71
2023/06/30 05:14:46;;;;;;;8.45;3.42;;;24.70;66.10;;;;;;5135093;27;20019;-71
2023/06/30 05:17:11;;;;;;;6.60;3.30;;;24.90;63.80;;;;;;5136199;27;20055;-71
2023/06/30 05:19:37;;;;;;;9.70;3.15;;;25.20;62.60;;;;;;5136813;27;20015;-72
2023/06/30 05:22:03;;;;;;;7.97;3.33;;;25.70;61.60;;;;;;5137107;27;20026;-71
2023/06/30 05:24:29;;;;;;;9.98;3.70;;;26.10;60.90;;;;;;5135061;27;20103;-71
2023/06/30 05:26:56;;;;;;;6.40;3.15;;;26.20;61.00;;;;;;5134224;27;20030;-71
2023/06/30 05:29:21;;;;;;;7.65;4.07;;;26.30;60.00;;;;;;5134988;27;20364;-71
2023/06/30 05:31:47;;;;;;;9.80;3.63;;;26.10;59.50;;;;;;5134258;27;20041;-72
2023/06/30 05:34:16;;;;;;;10.02;3.80;;;26.00;60.40;;;;;;5134740;27;20031;-72
2023/06/30 05:36:44;;;;;;;7.72;3.53;;;26.10;60.00;;;;;;5134399;27;20474;-71
2023/06/30 05:39:11;;;;;;;10.43;3.13;;;26.10;59.10;;;;;;5133756;27;20490;-70
2023/06/30 05:41:37;;;;;;;9.60;3.30;;;26.10;59.10;;;;;;5134420;27;20452;-71
2023/06/30 05:44:03;;;;;;;9.18;3.65;;;26.20;59.00;;;;;;5133280;27;20031;-72
2023/06/30 05:46:29;;;;;;;5.90;3.53;;;26.40;58.70;;;;;;5134209;27;20051;-72
2023/06/30 05:48:54;;;;;;;5.13;3.47;;;26.50;58.00;;;;;;5133871;27;20023;-72
2023/06/30 05:51:20;;;;;;;6.28;3.67;;;26.80;58.50;;;;;;5134255;27;20024;-71
2023/06/30 05:53:46;;;;;;;7.20;3.30;;;26.90;57.00;;;;;;5134448;27;20467;-73
2023/06/30 05:56:11;;;;;;;13.75;3.95;;;27.20;57.10;;;;;;5133999;27;20038;-72
2023/06/30 05:58:39;;;;;;;7.53;3.80;;;27.50;56.50;;;;;;5130925;27;20031;-72
2023/06/30 06:01:05;;;;;;;7.68;3.42;;;27.80;55.60;;;;;;5133777;27;20079;-72
2023/06/30 06:03:30;;;;;;;13.55;4.13;;;28.20;54.50;;;;;;5133900;27;20031;-73
2023/06/30 06:05:57;;;;;;;9.45;3.83;;;28.50;54.50;;;;;;5133434;27;20038;-71
2023/06/30 06:08:23;;;;;;;5.85;3.20;;;28.90;53.80;;;;;;5134056;27;20038;-72
2023/06/30 06:10:49;;;;;;;9.70;3.42;;;29.30;52.60;;;;;;5133735;27;20051;-72
2023/06/30 06:13:34;;;;;;;10.02;3.65;;;29.50;52.20;;;;;;5133660;27;20454;-72
2023/06/30 06:16:01;;;;;;;7.82;3.33;;;29.40;52.30;;;;;;5133182;27;20501;-71
2023/06/30 06:18:26;;;;;;;8.70;3.30;;;29.70;51.20;;;;;;5133618;27;20023;-73
2023/06/30 06:20:52;;;;;;;5.80;3.38;;;30.00;51.20;;;;;;5133521;27;20576;-71
2023/06/30 06:23:18;;;;;;;10.63;3.35;;;30.60;49.70;;;;;;5133814;27;20027;-71
2023/06/30 06:25:43;;;;;;;10.05;4.25;;;31.00;49.00;;;;;;5133699;27;20042;-71
2023/06/30 06:28:09;;;;;;;4.65;3.13;;;31.10;48.40;;;;;;5133471;27;20031;-71
2023/06/30 06:30:35;;;;;;;7.20;3.40;;;31.20;47.50;;;;;;5133865;27;20475;-71
2023/06/30 06:33:00;;;;;;;8.95;3.45;;;31.20;47.20;;;;;;5133455;27;20030;-71
2023/06/30 06:35:26;;;;;;;10.20;3.65;;;31.40;47.50;;;;;;5133991;28;20038;-71
2023/06/30 06:37:51;;;;;;;8.57;3.40;;;31.50;46.70;;;;;;5114876;28;20034;-75
2023/06/30 06:40:17;;;;;;;8.57;3.38;;;31.60;46.10;;;;;;5133859;28;20026;-71
2023/06/30 06:42:43;;;;;;;5.65;3.22;;;31.50;46.50;;;;;;5133427;28;20387;-71
2023/06/30 06:45:09;;;;;;;7.25;3.25;;;31.70;46.00;;;;;;5132846;28;20129;-72
2023/06/30 06:48:12;;;;;;;8.80;3.00;;;32.00;46.00;;;;;;5100934;28;20043;-72
2023/06/30 06:50:37;;;;;;;10.20;3.22;;;32.90;46.10;;;;;;5112979;28;20104;-72
2023/06/30 06:53:03;;;;;;;7.95;4.05;;;33.50;43.40;;;;;;5112593;28;20113;-71
2023/06/30 06:55:29;;;;;;;8.43;3.45;;;33.40;42.90;;;;;;5113016;28;20506;-71
2023/06/30 06:57:54;;;;;;;6.10;3.17;;;33.70;43.10;;;;;;5116334;28;20034;-71
2023/06/30 07:00:20;;;;;;;6.47;3.20;;;33.80;42.60;;;;;;5117301;28;20114;-72
2023/06/30 07:02:46;;;;;;;9.55;3.58;;;34.30;41.70;;;;;;5118266;27;20016;-72
2023/06/30 07:05:12;;;;;;;6.07;3.47;;;33.70;41.70;;;;;;5116234;28;20395;-72
2023/06/30 07:07:38;;;;;;;9.88;3.63;;;33.90;42.90;;;;;;5116763;28;20028;-70
2023/06/30 07:10:03;;;;;;;9.20;3.75;;;34.10;41.40;;;;;;5116458;28;20027;-72
2023/06/30 07:12:29;;;;;;;8.88;3.75;;;34.20;41.10;;;;;;5116741;28;20020;-71
2023/06/30 07:14:55;;;;;;;5.40;3.55;;;34.00;41.10;;;;;;5116172;28;20024;-71
2023/06/30 07:17:21;;;;;;;7.22;3.58;;;33.90;41.20;;;;;;5116638;28;20024;-71
2023/06/30 07:19:46;;;;;;;6.43;3.30;;;34.30;40.70;;;;;;5116667;28;20028;-72
2023/06/30 07:22:12;;;;;;;5.20;3.17;;;34.40;40.80;;;;;;5116084;28;20102;-71
2023/06/30 07:24:38;;;;;;;8.55;3.97;;;34.40;41.50;;;;;;5116065;28;20032;-71
2023/06/30 07:27:03;;;;;;;8.40;3.30;;;34.40;41.30;;;;;;5115998;28;20031;-73
2023/06/30 07:29:29;;;;;;;12.93;3.90;;;34.90;41.30;;;;;;5116112;28;20514;-72
2023/06/30 07:31:55;;;;;;;6.05;3.15;;;35.30;40.40;;;;;;5116479;28;20024;-70
2023/06/30 07:34:23;;;;;;;8.27;3.78;;;35.60;40.50;;;;;;5116470;28;20024;-70
2023/06/30 07:36:50;;;;;;;6.95;3.53;;;35.50;39.70;;;;;;5116296;28;20372;-71
2023/06/30 07:39:16;;;;;;;9.60;3.13;;;35.40;40.10;;;;;;5115932;28;20358;-71
2023/06/30 07:41:42;;;;;;;7.60;3.63;;;35.90;39.20;;;;;;5116063;28;20418;-71
2023/06/30 07:44:09;;;;;;;7.57;3.63;;;35.50;38.90;;;;;;5115337;28;20035;-71
2023/06/30 07:46:35;;;;;;;6.65;3.22;;;35.30;39.60;;;;;;5115421;28;20052;-71
2023/06/30 07:49:00;;;;;;;7.20;3.35;;;35.40;38.80;;;;;;5115547;28;20118;-72
2023/06/30 07:51:26;;;;;;;7.68;3.70;;;35.60;39.30;;;;;;5097850;28;20334;-70
2023/06/30 07:53:51;;;;;;;9.68;3.75;;;35.70;39.70;;;;;;5115843;28;20361;-72
2023/06/30 07:56:17;;;;;;;9.55;3.42;;;35.70;40.10;;;;;;5115311;28;20464;-71
2023/06/30 07:58:43;;;;;;;6.20;3.30;;;35.90;39.20;;;;;;5116045;27;20030;-71
2023/06/30 08:01:08;;;;;;;8.07;3.83;;;35.90;39.20;;;;;;5117485;27;20027;-71
2023/06/30 08:03:34;;;;;;;9.52;3.75;;;35.90;38.70;;;;;;5116089;28;20107;-71
2023/06/30 08:06:00;;;;;;;6.60;3.50;;;36.00;39.20;;;;;;5115409;28;20410;-72
2023/06/30 08:08:25;;;;;;;8.15;3.83;;;36.00;39.80;;;;;;5115235;28;20450;-71
2023/06/30 08:10:51;;;;;;;5.75;3.80;;;36.00;39.20;;;;;;5115910;28;20372;-71
2023/06/30 08:13:16;;;;;;;10.57;4.00;;;35.70;38.40;;;;;;5096707;28;20035;-71
2023/06/30 08:15:42;;;;;;;8.55;4.20;;;35.40;38.40;;;;;;5115555;28;20039;-70
2023/06/30 08:18:11;;;;;;;8.07;3.38;;;35.00;38.80;;;;;;5115010;28;20027;-71
2023/06/30 08:20:36;;;;;;;9.77;3.83;;;35.20;39.00;;;;;;5115004;28;20016;-71
2023/06/30 08:23:02;;;;;;;7.35;3.80;;;35.20;39.10;;;;;;5115381;28;20028;-71
2023/06/30 08:25:28;;;;;;;7.30;3.63;;;35.10;39.30;;;;;;5115230;28;20028;-71
2023/06/30 08:27:54;;;;;;;5.20;3.50;;;35.20;39.80;;;;;;5115405;28;20036;-70
2023/06/30 08:30:20;;;;;;;11.32;3.63;;;35.20;39.80;;;;;;5096479;28;20043;-71
2023/06/30 08:32:45;;;;;;;8.95;4.63;;;34.80;39.10;;;;;;5114864;28;20023;-71
2023/06/30 08:35:11;;;;;;;8.32;4.45;;;34.50;39.30;;;;;;5114757;28;20466;-72
2023/06/30 08:37:38;;;;;;;6.50;3.20;;;34.30;39.80;;;;;;5114895;28;20051;-72
2023/06/30 08:40:04;;;;;;;7.15;3.75;;;34.10;39.90;;;;;;5114802;28;20130;-71
2023/06/30 08:42:31;;;;;;;6.75;3.40;;;33.70;40.20;;;;;;5114629;28;20062;-72
2023/06/30 08:44:57;;;;;;;6.63;3.60;;;33.00;41.10;;;;;;5114543;28;20024;-70
2023/06/30 08:47:28;;;;;;;8.85;3.35;;;32.70;41.70;;;;;;5114468;28;20143;-71
2023/06/30 08:49:54;;;;;;;5.68;3.33;;;32.20;41.90;;;;;;5114949;28;20023;-69
2023/06/30 08:52:21;;;;;;;6.00;3.58;;;31.90;42.50;;;;;;5114473;28;20457;-71
2023/06/30 08:54:47;;;;;;;6.05;3.97;;;31.80;42.60;;;;;;5114479;28;20064;-72
2023/06/30 08:57:20;;;;;;;8.35;3.53;;;31.70;43.00;;;;;;5121402;27;20113;-72
2023/06/30 08:59:45;;;;;;;4.53;3.60;;;31.60;43.10;;;;;;5116092;27;20521;-71
2023/06/30 09:02:11;;;;;;;10.40;3.45;;;31.20;43.90;;;;;;5114399;28;20028;-72
2023/06/30 09:04:38;;;;;;;6.88;3.40;;;31.30;44.40;;;;;;5114655;28;20371;-71
2023/06/30 09:07:07;;;;;;;6.40;3.88;;;31.30;43.90;;;;;;5114182;28;20092;-72
2023/06/30 09:09:43;;;;;;;6.88;3.70;;;31.10;43.40;;;;;;5114660;28;20546;-71
2023/06/30 09:12:10;;;;;;;6.28;3.30;;;30.80;44.10;;;;;;5114229;28;20019;-71
2023/06/30 09:14:40;;;;;;;8.45;3.67;;;30.90;45.40;;;;;;5114424;28;20023;-70
2023/06/30 09:17:06;;;;;;;4.63;3.42;;;30.80;44.90;;;;;;5114201;28;20076;-71
2023/06/30 09:19:32;;;;;;;12.63;3.53;;;30.40;44.80;;;;;;5113462;28;20028;-71
2023/06/30 09:21:58;;;;;;;8.00;3.67;;;30.20;45.40;;;;;;5114143;28;20357;-71
2023/06/30 09:24:24;;;;;;;9.93;4.57;;;30.10;46.50;;;;;;5113677;28;20320;-71
2023/06/30 09:26:50;;;;;;;7.30;4.38;;;30.20;47.50;;;;;;5114026;28;20028;-70
2023/06/30 09:29:20;;;;;;;10.38;5.18;;;30.10;47.90;;;;;;5113378;28;20042;-71
2023/06/30 09:31:49;;;;;;;;;;;30.20;47.50;;;;;;5114480;28;20015;-70
2023/06/30 09:34:14;;;;;;;5.93;3.90;;;30.20;47.40;;;;;;5095478;28;19904;-71
2023/06/30 09:36:51;;;;;;;6.35;3.70;;;30.30;47.80;;;;;;5114040;28;20076;-71
2023/06/30 09:39:17;;;;;;;8.25;4.53;;;30.40;48.90;;;;;;5113627;28;20030;-71
2023/06/30 09:41:47;;;;;;;10.27;4.35;;;30.00;47.50;;;;;;5113890;28;20376;-71
2023/06/30 09:44:17;;;;;;;7.88;4.25;;;30.00;47.60;;;;;;5113496;28;20024;-71
2023/06/30 09:46:46;;;;;;;7.43;4.00;;;29.80;48.00;;;;;;5113883;28;20103;-72
2023/06/30 09:49:32;;;;;;;5.90;3.42;;;29.50;48.60;;;;;;5113386;28;20038;-72
2023/06/30 09:51:59;;;;;;;5.70;4.00;;;29.60;49.00;;;;;;5114296;27;20450;-72
2023/06/30 09:54:25;;;;;;;6.22;3.33;;;29.60;49.00;;;;;;5133935;27;20371;-71
2023/06/30 09:56:58;;;;;;;5.25;3.40;;;29.80;49.00;;;;;;5134324;27;20019;-70
2023/06/30 09:59:23;;;;;;;5.00;3.40;;;29.80;49.00;;;;;;5133670;27;20058;-70
2023/06/30 10:01:53;;;;;;;6.20;3.70;;;29.80;48.70;;;;;;5134217;27;20050;-70
2023/06/30 10:04:18;;;;;;;4.13;3.30;;;29.80;49.10;;;;;;5133709;27;20026;-71
2023/06/30 10:06:47;;;;;;;5.70;2.78;;;29.70;49.00;;;;;;5133602;27;20023;-72
2023/06/30 10:09:14;;;;;;;5.70;3.45;;;29.80;48.80;;;;;;5133779;27;20404;-72
2023/06/30 10:11:43;;;;;;;7.70;3.00;;;29.70;49.10;;;;;;5133912;27;20360;-70
2023/06/30 10:14:10;;;;;;;4.10;3.10;;;29.70;49.90;;;;;;5133321;27;20027;-71
2023/06/30 10:16:38;;;;;;;6.95;3.67;;;29.70;50.10;;;;;;5133511;27;20037;-70
2023/06/30 10:19:05;;;;;;;5.20;3.17;;;29.60;50.60;;;;;;5133754;27;20023;-71
2023/06/30 10:21:32;;;;;;;5.38;3.15;;;29.60;50.20;;;;;;5114796;27;20075;-70
2023/06/30 10:24:01;;;;;;;7.45;3.10;;;29.60;50.10;;;;;;5133496;27;20030;-72
2023/06/30 10:26:27;;;;;;;4.72;3.20;;;29.50;50.00;;;;;;5133182;27;20110;-70
2023/06/30 10:28:54;;;;;;;5.30;2.63;;;29.50;50.40;;;;;;5133353;27;20035;-72
2023/06/30 10:31:21;;;;;;;5.60;3.00;;;29.60;50.20;;;;;;5133149;27;20376;-72
2023/06/30 10:33:47;;;;;;;5.90;2.75;;;29.60;49.90;;;;;;5133789;27;20035;-72
2023/06/30 10:36:15;;;;;;;6.65;2.85;;;29.60;48.90;;;;;;5133259;28;20053;-72
2023/06/30 10:38:43;;;;;;;7.72;3.08;;;29.50;49.70;;;;;;5133762;28;20023;-71
2023/06/30 10:41:27;;;;;;;4.30;3.30;;;29.50;50.20;;;;;;5115120;28;20031;-71
2023/06/30 10:44:13;;;;;;;6.80;2.90;;;29.40;50.30;;;;;;5133995;28;20059;-71
2023/06/30 10:46:48;;;;;;;4.63;2.72;;;29.50;50.30;;;;;;5132735;28;20061;-71
2023/06/30 10:49:29;;;;;;;7.30;3.35;;;29.50;50.20;;;;;;5120844;28;20391;-71
2023/06/30 10:51:56;;;;;;;5.68;2.65;;;29.40;49.90;;;;;;5115126;28;20524;-71
2023/06/30 10:54:26;;;;;;;8.88;3.10;;;29.20;50.50;;;;;;5132724;28;20416;-70
2023/06/30 10:57:05;;;;;;;5.88;3.20;;;29.30;50.90;;;;;;5133241;28;20105;-70
2023/06/30 10:59:44;;;;;;;8.98;3.17;;;29.30;50.90;;;;;;5132701;28;20039;-72
2023/06/30 11:02:18;;;;;;;8.90;3.05;;;29.30;50.70;;;;;;5132961;28;20432;-70
2023/06/30 11:04:47;;;;;;;6.03;3.00;;;29.30;50.80;;;;;;5133179;28;20050;-70
2023/06/30 11:07:27;;;;;;;6.40;3.17;;;29.30;50.80;;;;;;5132806;28;20393;-70
2023/06/30 11:09:52;;;;;;;5.70;2.60;;;29.30;51.10;;;;;;5133699;28;20027;-71
2023/06/30 11:12:19;;;;;;;5.18;2.70;;;29.50;50.50;;;;;;5133108;28;20030;-71
2023/06/30 11:14:56;;;;;;;5.00;2.42;;;29.40;49.90;;;;;;5133163;28;20301;-70
2023/06/30 11:17:22;;;;;;;6.70;2.55;;;29.50;50.60;;;;;;5132904;28;20422;-70
2023/06/30 11:20:06;;;;;;;4.95;2.63;;;29.60;50.50;;;;;;5133298;28;20119;-70
2023/06/30 11:22:32;;;;;;;4.30;2.70;;;29.60;49.60;;;;;;5132830;28;20346;-71
2023/06/30 11:25:02;;;;;;;8.95;2.60;;;29.70;49.50;;;;;;5133190;28;20406;-70
2023/06/30 11:27:31;;;;;;;5.25;2.60;;;29.70;49.20;;;;;;5132619;28;20443;-71
2023/06/30 11:29:59;;;;;;;3.40;2.75;;;29.70;48.10;;;;;;5132994;28;20518;-71
2023/06/30 11:32:29;;;;;;;4.32;2.25;;;29.80;47.50;;;;;;5132693;28;20104;-71
2023/06/30 11:34:56;;;;;;;3.85;2.55;;;29.70;47.30;;;;;;5133278;28;20031;-71
2023/06/30 11:37:22;;;;;;;4.00;2.20;;;29.80;47.60;;;;;;5132745;28;20059;-71
2023/06/30 11:39:56;;;;;;;5.32;2.67;;;29.80;47.20;;;;;;5133043;28;20043;-71
2023/06/30 11:42:22;;;;;;;10.18;2.70;;;29.90;47.30;;;;;;5133856;27;20031;-72
2023/06/30 11:44:49;;;;;;;4.30;2.45;;;29.90;47.20;;;;;;5136496;27;20058;-72
2023/06/30 11:47:15;;;;;;;4.25;2.30;;;29.90;47.20;;;;;;5136658;27;20055;-72
2023/06/30 11:49:41;;;;;;;6.60;2.78;;;30.00;48.20;;;;;;5136793;27;20076;-71
2023/06/30 11:52:08;;;;;;;7.63;2.58;;;29.90;47.50;;;;;;5136848;27;20019;-71
2023/06/30 11:54:35;;;;;;;3.33;2.40;;;29.90;47.10;;;;;;5136378;27;20830;-71
2023/06/30 11:57:02;;;;;;;4.13;2.30;;;29.90;46.00;;;;;;5133386;27;20115;-71
2023/06/30 11:59:28;;;;;;;8.52;2.28;;;29.90;46.40;;;;;;5136236;27;20030;-71
2023/06/30 12:01:54;;;;;;;5.68;2.53;;;29.70;46.10;;;;;;5136168;27;20379;-71
2023/06/30 12:04:22;;;;;;;5.80;2.40;;;29.70;46.80;;;;;;5136066;27;20031;-72
2023/06/30 12:06:48;;;;;;;5.07;2.20;;;29.60;46.60;;;;;;5136368;27;20110;-71
2023/06/30 12:09:14;;;;;;;6.55;2.33;;;29.50;46.30;;;;;;5136381;27;20031;-72
2023/06/30 12:11:44;;;;;;;5.03;2.17;;;29.50;46.60;;;;;;5135949;27;20130;-72
2023/06/30 12:14:14;;;;;;;4.97;2.22;;;29.40;45.70;;;;;;5136074;27;20027;-72
2023/06/30 12:16:45;;;;;;;3.50;1.90;;;29.30;43.30;;;;;;5136155;27;20054;-72
2023/06/30 12:19:12;;;;;;;6.10;2.30;;;29.20;42.80;;;;;;5136102;27;20076;-70
2023/06/30 12:22:12;;;;;;;3.33;1.92;;;29.10;44.50;;;;;;5135508;27;20031;-72
2023/06/30 12:24:42;;;;;;;2.60;1.70;;;29.10;44.10;;;;;;5091379;27;20448;-71
2023/06/30 12:27:08;;;;;;;5.82;2.10;;;29.00;42.10;;;;;;5135998;27;20027;-71
2023/06/30 12:29:35;;;;;;;1.95;1.58;;;29.00;41.50;;;;;;5135431;27;20031;-71
2023/06/30 12:32:14;;;;;;;5.70;3.50;;;29.00;41.60;;;;;;5135965;27;20167;-72
2023/06/30 12:34:40;;;;;;;3.75;2.38;;;29.00;42.60;;;;;;5117231;27;20110;-72
2023/06/30 12:37:05;;;;;;;4.15;1.90;;;29.00;44.00;;;;;;5135804;27;20168;-72
2023/06/30 12:39:32;;;;;;;2.83;2.00;;;29.00;44.20;;;;;;5135328;27;20112;-71
2023/06/30 12:41:57;;;;;;;3.75;2.00;;;29.00;45.10;;;;;;5135867;27;20031;-72
2023/06/30 12:44:23;;;;;;;5.20;1.98;;;29.00;45.90;;;;;;5135236;27;20490;-72
2023/06/30 12:47:05;;;;;;;5.90;2.00;;;29.00;46.40;;;;;;5134490;27;20039;-70